createdAt,value
2023-03-31T00:01:58.001Z,100.00
2023-03-31T00:05:01.249Z,100.00
2023-03-31T00:08:04.140Z,100.00
2023-03-31T00:11:08.072Z,100.00
2023-03-31T00:14:11.214Z,100.00
2023-03-31T00:17:14.730Z,100.00
2023-03-31T00:20:17.403Z,100.00
2023-03-31T00:23:28.018Z,100.00
2023-03-31T00:26:31.600Z,100.00
2023-03-31T00:29:35.950Z,100.00
2023-03-31T00:32:38.636Z,100.00
2023-03-31T00:35:41.896Z,100.00
2023-03-31T00:38:46.405Z,100.00
2023-03-31T00:41:49.689Z,100.00
2023-03-31T00:45:31.006Z,100.00
2023-03-31T00:48:37.750Z,100.00
2023-03-31T00:51:40.566Z,100.00
2023-03-31T00:54:46.216Z,100.00
2023-03-31T00:57:49.017Z,100.00
2023-03-31T01:00:53.055Z,100.00
2023-03-31T01:03:57.457Z,100.00
2023-03-31T01:07:17.235Z,100.00
2023-03-31T01:10:20.401Z,100.00
2023-03-31T01:13:26.538Z,100.00
2023-03-31T01:16:29.336Z,100.00
2023-03-31T01:19:47.157Z,100.00
2023-03-31T01:23:10.744Z,100.00
2023-03-31T01:26:32.275Z,100.00
2023-03-31T01:29:53.743Z,100.00
2023-03-31T01:33:33.987Z,100.00
2023-03-31T01:36:54.398Z,100.00
2023-03-31T01:40:00.626Z,100.00
2023-03-31T01:43:12.792Z,100.00
2023-03-31T01:46:51.728Z,100.00
2023-03-31T01:50:02.582Z,100.00
2023-03-31T01:53:36.232Z,100.00
2023-03-31T01:56:44.106Z,100.00
2023-03-31T02:00:11.653Z,100.00
2023-03-31T02:03:21.950Z,100.00
2023-03-31T02:06:30.777Z,100.00
2023-03-31T02:09:39.144Z,100.00
2023-03-31T02:12:44.373Z,100.00
2023-03-31T02:15:54.799Z,100.00
2023-03-31T02:19:02.470Z,100.00
2023-03-31T02:22:08.864Z,100.00
2023-03-31T02:25:15.519Z,100.00
2023-03-31T02:28:24.943Z,100.00
2023-03-31T02:31:44.062Z,100.00
2023-03-31T02:34:47.125Z,100.00
2023-03-31T02:37:49.932Z,100.00
2023-03-31T02:40:53.543Z,100.00
2023-03-31T02:43:56.653Z,100.00
2023-03-31T02:46:59.828Z,100.00
2023-03-31T02:50:05.833Z,100.00
2023-03-31T02:53:21.138Z,100.00
2023-03-31T02:56:42.383Z,100.00
2023-03-31T03:00:08.833Z,100.00
2023-03-31T03:03:39.310Z,100.00
2023-03-31T03:06:57.652Z,100.00
2023-03-31T03:10:10.821Z,100.00
2023-03-31T03:13:24.533Z,100.00
2023-03-31T03:16:36.082Z,100.00
2023-03-31T03:19:41.772Z,100.00
2023-03-31T03:22:44.389Z,100.00
2023-03-31T03:25:48.037Z,100.00
2023-03-31T03:28:51.881Z,100.00
2023-03-31T03:31:55.064Z,100.00
2023-03-31T03:34:57.700Z,100.00
2023-03-31T03:38:00.684Z,100.00
2023-03-31T03:41:03.549Z,100.00
2023-03-31T03:44:06.786Z,100.00
2023-03-31T03:47:09.422Z,100.00
2023-03-31T03:50:15.948Z,100.00
2023-03-31T03:53:19.706Z,100.00
2023-03-31T03:56:22.813Z,100.00
2023-03-31T03:59:25.706Z,100.00
2023-03-31T04:02:29.115Z,100.00
2023-03-31T04:05:32.177Z,100.00
2023-03-31T04:08:34.846Z,100.00
2023-03-31T04:11:38.055Z,100.00
2023-03-31T04:14:41.449Z,100.00
2023-03-31T04:17:50.943Z,100.00
2023-03-31T04:21:12.424Z,100.00
2023-03-31T04:24:21.701Z,100.00
2023-03-31T04:27:27.265Z,100.00
2023-03-31T04:30:32.893Z,100.00
2023-03-31T04:33:38.854Z,100.00
2023-03-31T04:36:48.006Z,100.00
2023-03-31T04:39:54.651Z,100.00
2023-03-31T04:42:57.611Z,100.00
2023-03-31T04:46:00.341Z,100.00
2023-03-31T04:49:03.484Z,100.00
2023-03-31T04:52:06.224Z,100.00
2023-03-31T04:55:09.611Z,100.00
2023-03-31T04:58:12.300Z,100.00
2023-03-31T05:01:18.395Z,100.00
2023-03-31T05:04:24.196Z,100.00
2023-03-31T05:07:27.123Z,100.00
2023-03-31T05:10:30.618Z,100.00
2023-03-31T05:13:33.853Z,100.00
2023-03-31T05:16:36.541Z,100.00
2023-03-31T05:19:39.442Z,100.00
2023-03-31T05:22:43.863Z,100.00
2023-03-31T05:25:47.746Z,100.00
2023-03-31T05:28:50.630Z,100.00
2023-03-31T05:31:54.037Z,100.00
2023-03-31T05:34:57.220Z,100.00
2023-03-31T05:38:00.236Z,100.00
2023-03-31T05:41:03.126Z,97.47
2023-03-31T05:44:06.260Z,94.24
2023-03-31T05:47:08.980Z,97.42
2023-03-31T05:50:13.319Z,95.15
2023-03-31T05:53:17.452Z,90.18
2023-03-31T05:56:20.596Z,87.91
2023-03-31T05:59:23.386Z,79.12
2023-03-31T06:02:26.712Z,73.05
2023-03-31T06:05:31.260Z,68.28
2023-03-31T06:08:35.491Z,66.34
2023-03-31T06:11:38.784Z,63.96
2023-03-31T06:14:41.614Z,63.53
2023-03-31T06:17:44.747Z,59.21
2023-03-31T06:20:47.533Z,56.38
2023-03-31T06:23:52.738Z,56.50
2023-03-31T06:26:55.590Z,55.52
2023-03-31T06:29:58.631Z,54.65
2023-03-31T06:33:01.555Z,53.31
2023-03-31T06:36:05.928Z,50.98
2023-03-31T06:39:08.627Z,53.92
2023-03-31T06:42:11.642Z,49.22
2023-03-31T06:45:16.211Z,50.36
2023-03-31T06:48:19.722Z,48.03
2023-03-31T06:51:22.486Z,47.57
2023-03-31T06:54:26.106Z,47.11
2023-03-31T06:57:29.793Z,49.09
2023-03-31T07:00:33.863Z,54.16
2023-03-31T07:03:36.881Z,54.07
2023-03-31T07:06:39.898Z,53.00
2023-03-31T07:09:42.630Z,53.50
2023-03-31T07:12:45.933Z,50.99
2023-03-31T07:15:49.072Z,49.98
2023-03-31T07:18:54.850Z,52.44
2023-03-31T07:21:57.482Z,47.25
2023-03-31T07:25:00.682Z,42.96
2023-03-31T07:28:04.970Z,49.04
2023-03-31T07:31:12.339Z,63.64
2023-03-31T07:34:15.398Z,66.79
2023-03-31T07:37:18.389Z,58.57
2023-03-31T07:40:26.696Z,50.23
2023-03-31T07:43:29.992Z,45.33
2023-03-31T07:46:32.749Z,43.21
2023-03-31T07:49:36.935Z,50.24
2023-03-31T07:52:40.016Z,47.22
2023-03-31T07:55:42.973Z,43.89
2023-03-31T07:58:46.963Z,45.61
2023-03-31T08:01:49.908Z,41.82
2023-03-31T08:04:52.959Z,44.65
2023-03-31T08:07:55.701Z,56.65
2023-03-31T08:10:58.707Z,50.31
2023-03-31T08:14:01.592Z,49.44
2023-03-31T08:17:04.793Z,61.72
2023-03-31T08:20:09.332Z,61.16
2023-03-31T08:23:12.323Z,57.08
2023-03-31T08:26:18.462Z,50.74
2023-03-31T08:29:21.588Z,48.94
2023-03-31T08:32:24.924Z,48.94
2023-03-31T08:35:27.957Z,49.16
2023-03-31T08:38:31.341Z,48.78
2023-03-31T08:41:57.990Z,52.50
2023-03-31T08:45:16.061Z,47.69
2023-03-31T08:48:34.474Z,54.03
2023-03-31T08:51:41.438Z,47.54
2023-03-31T08:54:49.534Z,49.06
2023-03-31T08:58:01.213Z,60.33
2023-03-31T09:01:54.725Z,73.38
2023-03-31T09:05:11.535Z,76.10
2023-03-31T09:08:35.082Z,78.20
2023-03-31T09:11:58.714Z,79.54
2023-03-31T09:15:06.598Z,81.33
2023-03-31T09:18:38.395Z,79.93
2023-03-31T09:21:44.964Z,79.64
2023-03-31T09:25:06.148Z,78.77
2023-03-31T09:28:22.075Z,78.05
2023-03-31T09:31:25.070Z,76.65
2023-03-31T09:34:32.333Z,75.60
2023-03-31T09:37:34.960Z,79.73
2023-03-31T09:40:38.267Z,78.53
2023-03-31T09:43:41.937Z,77.93
2023-03-31T09:46:44.881Z,79.24
2023-03-31T09:49:54.019Z,79.44
2023-03-31T09:53:00.810Z,79.78
2023-03-31T09:56:08.471Z,78.57
2023-03-31T09:59:18.428Z,77.75
2023-03-31T10:02:33.975Z,77.23
2023-03-31T10:05:43.389Z,76.75
2023-03-31T10:08:58.278Z,76.16
2023-03-31T10:12:09.030Z,75.26
2023-03-31T10:15:20.777Z,76.70
2023-03-31T10:18:36.252Z,76.47
2023-03-31T10:21:39.386Z,76.10
2023-03-31T10:24:44.710Z,76.22
2023-03-31T10:27:49.935Z,75.08
2023-03-31T10:30:56.311Z,73.27
2023-03-31T10:33:59.900Z,72.23
2023-03-31T10:37:05.183Z,72.84
2023-03-31T10:40:24.837Z,75.56
2023-03-31T10:43:27.703Z,76.43
2023-03-31T10:46:47.916Z,77.16
2023-03-31T10:49:57.880Z,77.24
2023-03-31T10:53:04.041Z,76.65
2023-03-31T10:56:24.903Z,76.38
2023-03-31T10:59:58.703Z,76.63
2023-03-31T11:03:08.159Z,76.48
2023-03-31T11:06:46.033Z,78.01
2023-03-31T11:10:20.067Z,77.20
2023-03-31T11:13:29.637Z,77.15
2023-03-31T11:16:52.313Z,74.76
2023-03-31T11:19:57.823Z,75.62
2023-03-31T11:23:28.228Z,76.19
2023-03-31T11:26:46.559Z,75.79
2023-03-31T11:30:28.087Z,73.67
2023-03-31T11:34:10.078Z,74.84
2023-03-31T11:37:21.577Z,75.72
2023-03-31T11:40:36.060Z,73.55
2023-03-31T11:43:53.080Z,74.18
2023-03-31T11:47:06.602Z,74.57
2023-03-31T11:50:16.859Z,74.83
2023-03-31T11:53:25.647Z,72.06
2023-03-31T11:56:38.204Z,72.27
2023-03-31T11:59:43.095Z,69.60
2023-03-31T12:02:52.085Z,70.08
2023-03-31T12:06:03.961Z,69.93
2023-03-31T12:09:25.230Z,71.18
2023-03-31T12:12:32.321Z,67.39
2023-03-31T12:15:42.130Z,66.40
2023-03-31T12:19:07.969Z,65.72
2023-03-31T12:22:19.411Z,66.70
2023-03-31T12:25:23.236Z,66.88
2023-03-31T12:28:27.756Z,66.77
2023-03-31T12:31:33.225Z,65.67
2023-03-31T12:34:43.072Z,66.94
2023-03-31T12:38:01.164Z,67.64
2023-03-31T12:41:48.778Z,64.40
2023-03-31T12:45:28.223Z,63.07
2023-03-31T12:48:58.378Z,63.62
2023-03-31T12:52:48.813Z,63.95
2023-03-31T12:55:57.994Z,66.85
2023-03-31T12:59:19.101Z,67.67
2023-03-31T13:02:25.135Z,68.33
2023-03-31T13:05:40.472Z,66.94
2023-03-31T13:09:13.963Z,68.41
2023-03-31T13:12:23.350Z,67.50
2023-03-31T13:15:27.463Z,66.62
2023-03-31T13:18:34.100Z,64.88
2023-03-31T13:21:58.367Z,63.97
2023-03-31T13:25:29.822Z,65.12
2023-03-31T13:28:32.516Z,61.52
2023-03-31T13:32:00.485Z,63.42
2023-03-31T13:35:04.650Z,64.07
2023-03-31T13:38:27.725Z,63.78
2023-03-31T13:41:48.832Z,66.77
2023-03-31T13:44:55.667Z,66.43
2023-03-31T13:48:16.885Z,65.53
2023-03-31T13:51:25.745Z,65.84
2023-03-31T13:54:28.448Z,67.69
2023-03-31T13:58:05.403Z,69.40
2023-03-31T14:01:29.421Z,71.46
2023-03-31T14:05:04.373Z,72.42
2023-03-31T14:08:15.033Z,73.34
2023-03-31T14:11:21.499Z,74.05
2023-03-31T14:14:25.270Z,73.72
2023-03-31T14:17:31.923Z,73.03
2023-03-31T14:21:00.562Z,72.42
2023-03-31T14:24:37.016Z,72.58
2023-03-31T14:27:58.535Z,73.96
2023-03-31T14:31:26.913Z,74.57
2023-03-31T14:34:42.966Z,74.62
2023-03-31T14:37:46.633Z,76.30
2023-03-31T14:40:54.608Z,75.84
2023-03-31T14:44:02.961Z,76.33
2023-03-31T14:47:06.387Z,75.47
2023-03-31T14:50:13.787Z,75.87
2023-03-31T14:53:24.413Z,77.31
2023-03-31T14:56:36.341Z,78.17
2023-03-31T14:59:39.336Z,79.56
2023-03-31T15:02:44.882Z,79.50
2023-03-31T15:05:49.842Z,79.73
2023-03-31T15:08:57.638Z,79.30
2023-03-31T15:12:03.875Z,79.92
2023-03-31T15:15:08.218Z,81.33
2023-03-31T15:18:13.907Z,82.89
2023-03-31T15:21:25.899Z,83.84
2023-03-31T15:24:32.019Z,84.43
2023-03-31T15:27:45.294Z,85.56
2023-03-31T15:30:56.848Z,85.83
2023-03-31T15:34:27.308Z,85.59
2023-03-31T15:37:40.981Z,85.03
2023-03-31T15:40:45.979Z,85.98
2023-03-31T15:44:02.933Z,86.40
2023-03-31T15:47:21.797Z,85.62
2023-03-31T15:50:28.615Z,86.60
2023-03-31T15:53:49.251Z,86.40
2023-03-31T15:57:02.924Z,87.47
2023-03-31T16:00:08.012Z,87.72
2023-03-31T16:03:20.577Z,88.37
2023-03-31T16:06:48.067Z,88.63
2023-03-31T16:10:00.390Z,88.77
2023-03-31T16:13:07.622Z,88.99
2023-03-31T16:16:17.326Z,89.54
2023-03-31T16:19:24.788Z,90.49
2023-03-31T16:22:35.504Z,90.22
2023-03-31T16:25:41.407Z,91.16
2023-03-31T16:28:52.921Z,91.22
2023-03-31T16:32:22.288Z,91.17
2023-03-31T16:35:25.064Z,91.91
2023-03-31T16:38:29.872Z,91.97
2023-03-31T16:41:34.078Z,91.96
2023-03-31T16:44:37.144Z,92.45
2023-03-31T16:47:42.048Z,92.83
2023-03-31T16:50:48.844Z,93.08
2023-03-31T16:53:51.651Z,93.45
2023-03-31T16:56:54.587Z,93.12
2023-03-31T16:59:58.889Z,93.03
2023-03-31T17:03:03.484Z,93.27
2023-03-31T17:06:09.397Z,93.83
2023-03-31T17:09:12.440Z,93.32
2023-03-31T17:12:15.081Z,93.09
2023-03-31T17:15:18.571Z,93.19
2023-03-31T17:18:21.376Z,92.97
2023-03-31T17:21:24.687Z,93.80
2023-03-31T17:24:28.123Z,93.82
2023-03-31T17:27:32.231Z,93.90
2023-03-31T17:30:36.518Z,94.59
2023-03-31T17:33:40.292Z,94.14
2023-03-31T17:36:44.540Z,94.74
2023-03-31T17:39:47.739Z,94.71
2023-03-31T17:42:50.744Z,94.89
2023-03-31T17:46:02.194Z,94.37
2023-03-31T17:49:04.919Z,95.02
2023-03-31T17:52:08.189Z,95.27
2023-03-31T17:55:11.613Z,95.25
2023-03-31T17:58:14.616Z,95.36
2023-03-31T18:01:17.344Z,95.46
2023-03-31T18:04:20.872Z,96.15
2023-03-31T18:07:23.597Z,95.58
2023-03-31T18:10:26.686Z,96.73
2023-03-31T18:13:29.341Z,97.94
2023-03-31T18:16:32.608Z,99.06
2023-03-31T18:19:35.383Z,100.00
2023-03-31T18:22:38.347Z,100.00
2023-03-31T18:25:45.417Z,100.00
2023-03-31T18:28:48.761Z,100.00
2023-03-31T18:31:52.636Z,100.00
2023-03-31T18:34:57.295Z,100.00
2023-03-31T18:38:00.012Z,100.00
2023-03-31T18:41:03.629Z,100.00
2023-03-31T18:44:07.410Z,100.00
2023-03-31T18:47:10.457Z,100.00
2023-03-31T18:50:14.000Z,100.00
2023-03-31T18:53:19.072Z,100.00
2023-03-31T18:56:23.145Z,100.00
2023-03-31T18:59:26.177Z,100.00
2023-03-31T19:02:29.135Z,100.00
2023-03-31T19:05:37.126Z,100.00
2023-03-31T19:08:40.560Z,100.00
2023-03-31T19:11:43.866Z,100.00
2023-03-31T19:14:46.552Z,100.00
2023-03-31T19:17:49.747Z,100.00
2023-03-31T19:20:52.872Z,100.00
2023-03-31T19:23:55.922Z,100.00
2023-03-31T19:26:58.589Z,100.00
2023-03-31T19:30:01.760Z,100.00
2023-03-31T19:33:04.555Z,100.00
2023-03-31T19:36:07.951Z,100.00
2023-03-31T19:39:11.636Z,100.00
2023-03-31T19:42:17.867Z,100.00
2023-03-31T19:45:20.775Z,100.00
2023-03-31T19:48:26.233Z,100.00
2023-03-31T19:51:28.969Z,100.00
2023-03-31T19:54:32.786Z,100.00
2023-03-31T19:57:35.616Z,100.00
2023-03-31T20:00:39.450Z,100.00
2023-03-31T20:03:42.527Z,100.00
2023-03-31T20:06:46.173Z,100.00
2023-03-31T20:09:50.815Z,100.00
2023-03-31T20:12:54.085Z,100.00
2023-03-31T20:16:02.849Z,100.00
2023-03-31T20:19:06.265Z,100.00
2023-03-31T20:22:09.705Z,100.00
2023-03-31T20:25:12.407Z,100.00
2023-03-31T20:28:15.345Z,100.00
2023-03-31T20:31:21.218Z,100.00
2023-03-31T20:34:24.423Z,100.00
2023-03-31T20:37:27.119Z,100.00
2023-03-31T20:40:30.190Z,100.00
2023-03-31T20:43:33.036Z,100.00
2023-03-31T20:46:36.432Z,100.00
2023-03-31T20:49:39.166Z,100.00
2023-03-31T20:52:43.593Z,100.00
2023-03-31T20:55:46.462Z,100.00
2023-03-31T20:58:50.927Z,100.00
2023-03-31T21:01:53.635Z,100.00
2023-03-31T21:04:56.917Z,100.00
2023-03-31T21:07:59.757Z,100.00
2023-03-31T21:11:03.274Z,100.00
2023-03-31T21:14:06.619Z,100.00
2023-03-31T21:17:09.556Z,100.00
2023-03-31T21:20:12.604Z,100.00
2023-03-31T21:23:15.937Z,100.00
2023-03-31T21:26:19.223Z,100.00
2023-03-31T21:29:22.301Z,100.00
2023-03-31T21:32:28.005Z,100.00
2023-03-31T21:35:31.946Z,100.00
2023-03-31T21:38:36.427Z,100.00
2023-03-31T21:41:40.618Z,100.00
2023-03-31T21:44:43.731Z,100.00
2023-03-31T21:47:46.686Z,100.00
2023-03-31T21:50:49.462Z,100.00
2023-03-31T21:53:55.436Z,100.00
2023-03-31T21:56:58.422Z,100.00
2023-03-31T22:00:01.398Z,100.00
2023-03-31T22:03:22.250Z,100.00
2023-03-31T22:06:31.715Z,100.00
2023-03-31T22:09:34.602Z,100.00
2023-03-31T22:12:38.397Z,100.00
2023-03-31T22:15:43.971Z,100.00
2023-03-31T22:18:50.053Z,100.00
2023-03-31T22:21:53.696Z,100.00
2023-03-31T22:24:56.722Z,100.00
2023-03-31T22:28:00.472Z,100.00
2023-03-31T22:31:03.539Z,100.00
2023-03-31T22:34:06.555Z,100.00
2023-03-31T22:37:09.530Z,100.00
2023-03-31T22:40:12.172Z,100.00
2023-03-31T22:43:15.314Z,100.00
2023-03-31T22:46:18.021Z,100.00
2023-03-31T22:49:20.964Z,100.00
2023-03-31T22:52:23.796Z,100.00
2023-03-31T22:55:26.902Z,100.00
2023-03-31T22:58:29.459Z,100.00
2023-03-31T23:01:32.747Z,100.00
2023-03-31T23:04:35.517Z,100.00
2023-03-31T23:07:38.716Z,100.00
2023-03-31T23:10:41.414Z,100.00
2023-03-31T23:13:44.861Z,100.00
2023-03-31T23:16:47.661Z,100.00
2023-03-31T23:19:51.324Z,100.00
2023-03-31T23:22:54.054Z,100.00
2023-03-31T23:26:00.974Z,100.00
2023-03-31T23:29:04.287Z,100.00
2023-03-31T23:32:07.354Z,100.00
2023-03-31T23:35:11.550Z,100.00
2023-03-31T23:38:14.562Z,100.00
2023-03-31T23:41:18.238Z,100.00
2023-03-31T23:44:21.310Z,100.00
2023-03-31T23:47:24.675Z,100.00
2023-03-31T23:50:28.310Z,100.00
2023-03-31T23:53:31.133Z,100.00
2023-03-31T23:56:34.490Z,100.00
2023-03-31T23:59:37.296Z,100.00
